BOND007 WIPP-WADD
Flight info
| Callsign | BOND007 |
|---|---|
| Flight time | N/A |
| Altitude | 35000 |
| Route | UDOKO T5 HLM T3 ANY G461 BA T3 MOVMO |
| Aircraft | B738/M-SDE2E3FGHIRWXY/LB1 |
Departure
| Time | 2026-04-24 09:58 |
|---|---|
| Airport | Sultan Mahmud Badaruddin II Airport (WIPP) |
Arrival
| Time | N/A |
|---|---|
| Airport | Denpasar I Gusti Ngurah Rai International Airport (WADD) |
| Time | Latitude | Longitude | Altitude | Speed | Heading |
|---|---|---|---|---|---|
| 2026-04-24 09:52 | -2.89450 | 104.70351 | 44 ft | 0 kts | 200° |
| 2026-04-24 09:54 | -2.89464 | 104.70348 | 43 ft | 9 kts | 183° |
| 2026-04-24 09:54 | -2.89622 | 104.70332 | 45 ft | 16 kts | 199° |
| 2026-04-24 09:54 | -2.89673 | 104.70313 | 45 ft | 0 kts | 203° |
| 2026-04-24 09:54 | -2.89680 | 104.70310 | 45 ft | 1 kts | 206° |
| 2026-04-24 09:55 | -2.89699 | 104.70300 | 45 ft | 8 kts | 211° |
| 2026-04-24 09:55 | -2.89682 | 104.70097 | 43 ft | 31 kts | 285° |
| 2026-04-24 09:55 | -2.89594 | 104.69865 | 43 ft | 40 kts | 291° |
| 2026-04-24 09:55 | -2.89447 | 104.69540 | 45 ft | 53 kts | 294° |
| 2026-04-24 09:56 | -2.89358 | 104.69274 | 52 ft | 24 kts | 226° |
| 2026-04-24 09:56 | -2.89450 | 104.69237 | 54 ft | 21 kts | 205° |
| 2026-04-24 09:56 | -2.89418 | 104.68995 | 61 ft | 68 kts | 295° |
| 2026-04-24 09:56 | -2.89273 | 104.68674 | 65 ft | 31 kts | 285° |
| 2026-04-24 09:57 | -2.89245 | 104.68591 | 65 ft | 0 kts | 329° |
| 2026-04-24 09:57 | -2.89233 | 104.68606 | 65 ft | 4 kts | 110° |
| 2026-04-24 09:57 | -2.89256 | 104.68650 | 65 ft | 24 kts | 115° |
| 2026-04-24 09:57 | -2.89457 | 104.69118 | 57 ft | 124 kts | 112° |
| 2026-04-24 09:58 | -2.89873 | 104.70116 | 509 ft | 172 kts | 111° |
| 2026-04-24 09:58 | -2.90473 | 104.71586 | 1888 ft | 192 kts | 111° |
| 2026-04-24 09:58 | -2.91014 | 104.72920 | 2892 ft | 224 kts | 110° |
| 2026-04-24 09:58 | -2.91366 | 104.73912 | 3651 ft | 241 kts | 107° |
| 2026-04-24 09:59 | -2.91866 | 104.75561 | 4929 ft | 260 kts | 105° |
| 2026-04-24 09:59 | -2.92559 | 104.77869 | 6851 ft | 273 kts | 106° |
| 2026-04-24 09:59 | -2.93119 | 104.79681 | 8279 ft | 280 kts | 107° |
| 2026-04-24 09:59 | -2.93701 | 104.81545 | 9536 ft | 292 kts | 107° |
| 2026-04-24 10:00 | -2.94122 | 104.82890 | 9826 ft | 319 kts | 107° |
| 2026-04-24 10:00 | -2.94922 | 104.85179 | 9814 ft | 372 kts | 114° |
| 2026-04-24 10:00 | -2.96221 | 104.87556 | 9805 ft | 412 kts | 122° |
| 2026-04-24 10:00 | -2.98300 | 104.90571 | 9792 ft | 372 kts | 126° |
| 2026-04-24 10:01 | -2.99787 | 104.92617 | 9816 ft | 362 kts | 126° |
| 2026-04-24 10:01 | -3.00774 | 104.93971 | 9811 ft | 365 kts | 126° |
| 2026-04-24 10:01 | -3.02269 | 104.96021 | 10039 ft | 362 kts | 126° |
| 2026-04-24 10:01 | -3.04225 | 104.98704 | 10620 ft | 371 kts | 126° |
| 2026-04-24 10:02 | -3.05805 | 105.00872 | 11055 ft | 401 kts | 126° |
| 2026-04-24 10:02 | -3.06929 | 105.02415 | 11335 ft | 417 kts | 126° |
| 2026-04-24 10:02 | -3.09065 | 105.05352 | 11863 ft | 365 kts | 126° |
| 2026-04-24 10:02 | -3.10525 | 105.07357 | 12291 ft | 354 kts | 126° |
| 2026-04-24 10:03 | -3.11959 | 105.09325 | 13411 ft | 355 kts | 126° |
| 2026-04-24 10:03 | -3.13422 | 105.11329 | 14604 ft | 360 kts | 126° |
| 2026-04-24 10:03 | -3.14421 | 105.12696 | 14910 ft | 377 kts | 126° |
| 2026-04-24 10:03 | -3.16028 | 105.14893 | 15335 ft | 402 kts | 126° |
| 2026-04-24 10:04 | -3.17697 | 105.17178 | 15963 ft | 418 kts | 126° |
| 2026-04-24 10:04 | -3.19433 | 105.19560 | 16688 ft | 428 kts | 126° |
| 2026-04-24 10:04 | -3.21725 | 105.22716 | 17634 ft | 416 kts | 126° |
| 2026-04-24 10:04 | -3.22857 | 105.24278 | 18124 ft | 411 kts | 126° |
| 2026-04-24 10:05 | -3.25188 | 105.27316 | 19094 ft | 423 kts | 133° |
| 2026-04-24 10:05 | -3.26590 | 105.28706 | 19586 ft | 429 kts | 137° |
| 2026-04-24 10:05 | -3.29601 | 105.31342 | 20554 ft | 439 kts | 140° |
| 2026-04-24 10:05 | -3.31159 | 105.32667 | 21039 ft | 443 kts | 140° |
| 2026-04-24 10:06 | -3.34334 | 105.35361 | 22013 ft | 451 kts | 140° |
| 2026-04-24 10:06 | -3.39125 | 105.39423 | 23456 ft | 459 kts | 140° |
| 2026-04-24 10:06 | -3.40756 | 105.40802 | 23941 ft | 461 kts | 140° |
| 2026-04-24 10:07 | -3.43209 | 105.42871 | 24666 ft | 464 kts | 140° |
| 2026-04-24 10:07 | -3.46533 | 105.45659 | 25642 ft | 465 kts | 140° |
| 2026-04-24 10:07 | -3.48186 | 105.47038 | 26126 ft | 466 kts | 140° |
| 2026-04-24 10:07 | -3.50676 | 105.49107 | 26852 ft | 467 kts | 140° |
| 2026-04-24 10:08 | -3.53165 | 105.51159 | 27567 ft | 454 kts | 140° |
| 2026-04-24 10:08 | -3.56186 | 105.53646 | 27954 ft | 406 kts | 140° |
| 2026-04-24 10:08 | -3.58350 | 105.55436 | 26490 ft | 419 kts | 140° |
| 2026-04-24 10:08 | -3.59851 | 105.56684 | 24805 ft | 442 kts | 140° |
| 2026-04-24 10:09 | -3.62224 | 105.58668 | 22407 ft | 462 kts | 140° |
| 2026-04-24 10:09 | -3.64627 | 105.60690 | 21353 ft | 447 kts | 140° |
| 2026-04-24 10:09 | -3.66921 | 105.62633 | 21217 ft | 415 kts | 140° |
| 2026-04-24 10:09 | -3.69746 | 105.65037 | 20304 ft | 398 kts | 140° |
| 2026-04-24 10:10 | -3.71693 | 105.66705 | 20963 ft | 347 kts | 139° |
| 2026-04-24 10:10 | -3.73504 | 105.68261 | 19673 ft | 364 kts | 139° |
| 2026-04-24 10:10 | -3.75465 | 105.69950 | 16416 ft | 423 kts | 139° |
| 2026-04-24 10:10 | -3.77704 | 105.71884 | 13557 ft | 449 kts | 139° |
| 2026-04-24 10:11 | -3.79918 | 105.73802 | 14324 ft | 384 kts | 139° |